sensor_id;sensor_type;location;lat;lon;timestamp;P1;durP1;ratioP1;P2;durP2;ratioP2
72085;SDS011;64750;52.134;5.424;2023-02-13T00:00:03;21.77;;;13.05;;
72085;SDS011;64750;52.134;5.424;2023-02-13T00:02:33;20.30;;;12.50;;
72085;SDS011;64750;52.134;5.424;2023-02-13T00:05:00;23.38;;;12.68;;
72085;SDS011;64750;52.134;5.424;2023-02-13T00:07:26;22.33;;;12.52;;
72085;SDS011;64750;52.134;5.424;2023-02-13T00:09:52;20.97;;;11.47;;
72085;SDS011;64750;52.134;5.424;2023-02-13T00:12:19;20.30;;;11.80;;
72085;SDS011;64750;52.134;5.424;2023-02-13T00:14:45;19.60;;;11.65;;
72085;SDS011;64750;52.134;5.424;2023-02-13T00:17:12;19.38;;;11.27;;
72085;SDS011;64750;52.134;5.424;2023-02-13T00:19:38;19.75;;;11.80;;
72085;SDS011;64750;52.134;5.424;2023-02-13T00:22:05;17.23;;;11.40;;
72085;SDS011;64750;52.134;5.424;2023-02-13T00:24:31;18.65;;;11.45;;
72085;SDS011;64750;52.134;5.424;2023-02-13T00:26:57;19.20;;;12.05;;
72085;SDS011;64750;52.134;5.424;2023-02-13T00:29:24;16.63;;;10.68;;
72085;SDS011;64750;52.134;5.424;2023-02-13T00:31:50;18.67;;;11.65;;
72085;SDS011;64750;52.134;5.424;2023-02-13T00:34:17;17.60;;;11.73;;
72085;SDS011;64750;52.134;5.424;2023-02-13T00:36:43;18.60;;;11.48;;
72085;SDS011;64750;52.134;5.424;2023-02-13T00:39:10;19.48;;;11.27;;
72085;SDS011;64750;52.134;5.424;2023-02-13T00:41:37;18.88;;;11.43;;
72085;SDS011;64750;52.134;5.424;2023-02-13T00:44:04;19.38;;;10.70;;
72085;SDS011;64750;52.134;5.424;2023-02-13T00:46:31;20.37;;;11.20;;
72085;SDS011;64750;52.134;5.424;2023-02-13T00:48:57;20.25;;;10.65;;
72085;SDS011;64750;52.134;5.424;2023-02-13T00:51:23;21.60;;;11.25;;
72085;SDS011;64750;52.134;5.424;2023-02-13T00:53:50;20.25;;;11.10;;
72085;SDS011;64750;52.134;5.424;2023-02-13T00:56:16;21.40;;;10.45;;
72085;SDS011;64750;52.134;5.424;2023-02-13T00:58:43;16.60;;;10.93;;
72085;SDS011;64750;52.134;5.424;2023-02-13T01:01:09;18.33;;;10.50;;
72085;SDS011;64750;52.134;5.424;2023-02-13T01:03:36;20.30;;;10.80;;
72085;SDS011;64750;52.134;5.424;2023-02-13T01:06:03;17.42;;;10.60;;
72085;SDS011;64750;52.134;5.424;2023-02-13T01:08:30;18.38;;;10.70;;
72085;SDS011;64750;52.134;5.424;2023-02-13T01:10:57;18.87;;;10.13;;
72085;SDS011;64750;52.134;5.424;2023-02-13T01:13:24;19.40;;;11.40;;
72085;SDS011;64750;52.134;5.424;2023-02-13T01:15:51;16.58;;;10.00;;
72085;SDS011;64750;52.134;5.424;2023-02-13T01:18:18;18.63;;;10.85;;
72085;SDS011;64750;52.134;5.424;2023-02-13T01:20:54;18.02;;;11.35;;
72085;SDS011;64750;52.134;5.424;2023-02-13T01:23:30;16.73;;;9.70;;
72085;SDS011;64750;52.134;5.424;2023-02-13T01:25:58;21.83;;;10.75;;
72085;SDS011;64750;52.134;5.424;2023-02-13T01:28:25;20.45;;;11.70;;
72085;SDS011;64750;52.134;5.424;2023-02-13T01:30:52;18.45;;;10.68;;
72085;SDS011;64750;52.134;5.424;2023-02-13T01:33:21;19.95;;;10.85;;
72085;SDS011;64750;52.134;5.424;2023-02-13T01:35:48;16.73;;;10.73;;
72085;SDS011;64750;52.134;5.424;2023-02-13T01:38:15;21.27;;;10.95;;
72085;SDS011;64750;52.134;5.424;2023-02-13T01:40:49;19.17;;;10.50;;
72085;SDS011;64750;52.134;5.424;2023-02-13T01:43:17;18.88;;;10.68;;
72085;SDS011;64750;52.134;5.424;2023-02-13T01:45:46;21.40;;;11.85;;
72085;SDS011;64750;52.134;5.424;2023-02-13T01:48:16;20.97;;;11.90;;
72085;SDS011;64750;52.134;5.424;2023-02-13T01:50:47;16.83;;;10.13;;
72085;SDS011;64750;52.134;5.424;2023-02-13T01:53:23;16.95;;;10.23;;
72085;SDS011;64750;52.134;5.424;2023-02-13T01:56:00;16.77;;;10.32;;
72085;SDS011;64750;52.134;5.424;2023-02-13T01:58:34;21.70;;;11.43;;
72085;SDS011;64750;52.134;5.424;2023-02-13T02:01:04;18.90;;;10.73;;
72085;SDS011;64750;52.134;5.424;2023-02-13T02:06:29;19.98;;;11.35;;
72085;SDS011;64750;52.134;5.424;2023-02-13T02:08:59;21.20;;;10.38;;
72085;SDS011;64750;52.134;5.424;2023-02-13T02:11:45;18.23;;;10.57;;
72085;SDS011;64750;52.134;5.424;2023-02-13T02:14:12;17.40;;;10.53;;
72085;SDS011;64750;52.134;5.424;2023-02-13T02:16:38;19.27;;;11.48;;
72085;SDS011;64750;52.134;5.424;2023-02-13T02:19:07;21.50;;;10.90;;
72085;SDS011;64750;52.134;5.424;2023-02-13T02:24:43;18.77;;;11.55;;
72085;SDS011;64750;52.134;5.424;2023-02-13T02:41:15;23.33;;;11.63;;
72085;SDS011;64750;52.134;5.424;2023-02-13T02:44:24;19.85;;;10.88;;
72085;SDS011;64750;52.134;5.424;2023-02-13T02:50:11;18.67;;;10.75;;
72085;SDS011;64750;52.134;5.424;2023-02-13T02:52:55;21.85;;;11.70;;
72085;SDS011;64750;52.134;5.424;2023-02-13T03:01:25;19.45;;;10.77;;
72085;SDS011;64750;52.134;5.424;2023-02-13T03:04:17;19.63;;;11.13;;
72085;SDS011;64750;52.134;5.424;2023-02-13T03:07:07;19.92;;;10.73;;
72085;SDS011;64750;52.134;5.424;2023-02-13T03:09:38;21.60;;;11.20;;
72085;SDS011;64750;52.134;5.424;2023-02-13T03:12:29;14.40;;;9.98;;
72085;SDS011;64750;52.134;5.424;2023-02-13T03:15:21;20.73;;;11.00;;
72085;SDS011;64750;52.134;5.424;2023-02-13T03:17:50;19.67;;;10.50;;
72085;SDS011;64750;52.134;5.424;2023-02-13T03:23:35;19.57;;;10.80;;
72085;SDS011;64750;52.134;5.424;2023-02-13T03:32:10;19.05;;;10.35;;
72085;SDS011;64750;52.134;5.424;2023-02-13T03:34:47;21.73;;;11.05;;
72085;SDS011;64750;52.134;5.424;2023-02-13T03:37:42;21.80;;;12.27;;
72085;SDS011;64750;52.134;5.424;2023-02-13T03:43:02;19.58;;;11.35;;
72085;SDS011;64750;52.134;5.424;2023-02-13T03:45:36;20.17;;;11.63;;
72085;SDS011;64750;52.134;5.424;2023-02-13T03:48:20;16.92;;;11.00;;
72085;SDS011;64750;52.134;5.424;2023-02-13T03:51:11;28.20;;;11.50;;
72085;SDS011;64750;52.134;5.424;2023-02-13T03:53:41;19.35;;;11.35;;
72085;SDS011;64750;52.134;5.424;2023-02-13T03:56:11;20.80;;;11.68;;
72085;SDS011;64750;52.134;5.424;2023-02-13T03:58:58;20.73;;;10.85;;
72085;SDS011;64750;52.134;5.424;2023-02-13T04:01:43;17.25;;;10.95;;
72085;SDS011;64750;52.134;5.424;2023-02-13T04:04:32;17.13;;;10.87;;
72085;SDS011;64750;52.134;5.424;2023-02-13T04:07:04;17.10;;;10.90;;
72085;SDS011;64750;52.134;5.424;2023-02-13T04:09:36;21.02;;;11.00;;
72085;SDS011;64750;52.134;5.424;2023-02-13T04:14:49;21.67;;;12.07;;
72085;SDS011;64750;52.134;5.424;2023-02-13T04:20:17;23.58;;;11.65;;
72085;SDS011;64750;52.134;5.424;2023-02-13T04:22:44;21.55;;;11.90;;
72085;SDS011;64750;52.134;5.424;2023-02-13T04:25:13;22.73;;;11.55;;
72085;SDS011;64750;52.134;5.424;2023-02-13T04:27:41;18.40;;;11.27;;
72085;SDS011;64750;52.134;5.424;2023-02-13T04:30:08;20.10;;;11.43;;
72085;SDS011;64750;52.134;5.424;2023-02-13T04:32:35;17.48;;;10.57;;
72085;SDS011;64750;52.134;5.424;2023-02-13T04:35:01;18.33;;;11.00;;
72085;SDS011;64750;52.134;5.424;2023-02-13T04:37:28;17.30;;;10.82;;
72085;SDS011;64750;52.134;5.424;2023-02-13T04:39:54;18.90;;;10.77;;
72085;SDS011;64750;52.134;5.424;2023-02-13T04:42:21;20.50;;;11.70;;
72085;SDS011;64750;52.134;5.424;2023-02-13T04:44:47;20.05;;;10.93;;
72085;SDS011;64750;52.134;5.424;2023-02-13T04:47:14;23.30;;;12.32;;
72085;SDS011;64750;52.134;5.424;2023-02-13T04:49:40;20.30;;;11.57;;
72085;SDS011;64750;52.134;5.424;2023-02-13T04:52:06;19.70;;;11.85;;
72085;SDS011;64750;52.134;5.424;2023-02-13T04:54:33;23.23;;;11.07;;
72085;SDS011;64750;52.134;5.424;2023-02-13T04:56:59;22.50;;;11.57;;
72085;SDS011;64750;52.134;5.424;2023-02-13T04:59:25;22.90;;;12.52;;
72085;SDS011;64750;52.134;5.424;2023-02-13T05:01:52;24.38;;;11.50;;
72085;SDS011;64750;52.134;5.424;2023-02-13T05:04:19;20.65;;;11.90;;
72085;SDS011;64750;52.134;5.424;2023-02-13T05:06:45;19.20;;;11.47;;
72085;SDS011;64750;52.134;5.424;2023-02-13T05:09:12;24.98;;;11.85;;
72085;SDS011;64750;52.134;5.424;2023-02-13T05:11:38;20.27;;;11.27;;
72085;SDS011;64750;52.134;5.424;2023-02-13T05:14:05;24.00;;;11.52;;
72085;SDS011;64750;52.134;5.424;2023-02-13T05:16:31;20.35;;;12.18;;
72085;SDS011;64750;52.134;5.424;2023-02-13T05:18:58;24.17;;;12.27;;
72085;SDS011;64750;52.134;5.424;2023-02-13T05:21:24;22.25;;;11.18;;
72085;SDS011;64750;52.134;5.424;2023-02-13T05:24:09;21.73;;;11.45;;
72085;SDS011;64750;52.134;5.424;2023-02-13T05:26:36;21.00;;;11.77;;
72085;SDS011;64750;52.134;5.424;2023-02-13T05:29:02;21.08;;;11.20;;
72085;SDS011;64750;52.134;5.424;2023-02-13T05:31:50;17.60;;;10.03;;
72085;SDS011;64750;52.134;5.424;2023-02-13T05:34:19;16.58;;;10.57;;
72085;SDS011;64750;52.134;5.424;2023-02-13T05:36:47;23.45;;;11.35;;
72085;SDS011;64750;52.134;5.424;2023-02-13T05:39:14;21.20;;;12.02;;
72085;SDS011;64750;52.134;5.424;2023-02-13T05:41:41;21.38;;;11.40;;
72085;SDS011;64750;52.134;5.424;2023-02-13T05:44:08;21.27;;;12.53;;
72085;SDS011;64750;52.134;5.424;2023-02-13T05:46:36;20.50;;;12.20;;
72085;SDS011;64750;52.134;5.424;2023-02-13T05:49:05;20.48;;;11.50;;
72085;SDS011;64750;52.134;5.424;2023-02-13T05:51:32;22.10;;;11.98;;
72085;SDS011;64750;52.134;5.424;2023-02-13T05:53:58;25.45;;;11.88;;
72085;SDS011;64750;52.134;5.424;2023-02-13T05:56:25;23.17;;;12.23;;
72085;SDS011;64750;52.134;5.424;2023-02-13T05:58:52;19.83;;;11.65;;
72085;SDS011;64750;52.134;5.424;2023-02-13T06:01:19;22.17;;;11.93;;
72085;SDS011;64750;52.134;5.424;2023-02-13T06:03:46;21.23;;;11.18;;
72085;SDS011;64750;52.134;5.424;2023-02-13T06:06:13;25.80;;;13.48;;
72085;SDS011;64750;52.134;5.424;2023-02-13T06:08:40;22.67;;;12.07;;
72085;SDS011;64750;52.134;5.424;2023-02-13T06:11:06;22.13;;;12.05;;
72085;SDS011;64750;52.134;5.424;2023-02-13T06:13:33;28.23;;;12.77;;
72085;SDS011;64750;52.134;5.424;2023-02-13T06:16:00;20.17;;;11.63;;
72085;SDS011;64750;52.134;5.424;2023-02-13T06:18:26;19.92;;;12.18;;
72085;SDS011;64750;52.134;5.424;2023-02-13T06:20:53;23.33;;;13.27;;
72085;SDS011;64750;52.134;5.424;2023-02-13T06:23:19;22.73;;;13.35;;
72085;SDS011;64750;52.134;5.424;2023-02-13T06:25:45;23.52;;;13.13;;
72085;SDS011;64750;52.134;5.424;2023-02-13T06:28:12;24.48;;;13.40;;
72085;SDS011;64750;52.134;5.424;2023-02-13T06:30:38;27.67;;;14.25;;
72085;SDS011;64750;52.134;5.424;2023-02-13T06:33:05;23.10;;;12.03;;
72085;SDS011;64750;52.134;5.424;2023-02-13T06:35:31;26.02;;;12.95;;
72085;SDS011;64750;52.134;5.424;2023-02-13T06:37:58;22.88;;;12.68;;
72085;SDS011;64750;52.134;5.424;2023-02-13T06:40:24;25.63;;;13.35;;
72085;SDS011;64750;52.134;5.424;2023-02-13T06:42:51;24.08;;;13.88;;
72085;SDS011;64750;52.134;5.424;2023-02-13T06:45:17;24.87;;;14.10;;
72085;SDS011;64750;52.134;5.424;2023-02-13T06:47:45;23.50;;;13.60;;
72085;SDS011;64750;52.134;5.424;2023-02-13T06:50:13;24.17;;;12.18;;
72085;SDS011;64750;52.134;5.424;2023-02-13T06:52:47;24.50;;;13.23;;
72085;SDS011;64750;52.134;5.424;2023-02-13T06:55:14;22.50;;;12.95;;
72085;SDS011;64750;52.134;5.424;2023-02-13T06:57:42;24.23;;;13.17;;
72085;SDS011;64750;52.134;5.424;2023-02-13T07:00:10;22.50;;;12.63;;
72085;SDS011;64750;52.134;5.424;2023-02-13T07:02:39;29.40;;;12.98;;
72085;SDS011;64750;52.134;5.424;2023-02-13T07:05:06;24.83;;;12.70;;
72085;SDS011;64750;52.134;5.424;2023-02-13T07:07:36;23.90;;;13.73;;
72085;SDS011;64750;52.134;5.424;2023-02-13T07:10:04;26.73;;;13.07;;
72085;SDS011;64750;52.134;5.424;2023-02-13T07:12:32;25.27;;;12.80;;
72085;SDS011;64750;52.134;5.424;2023-02-13T07:14:59;25.90;;;13.50;;
72085;SDS011;64750;52.134;5.424;2023-02-13T07:17:25;24.30;;;13.55;;
72085;SDS011;64750;52.134;5.424;2023-02-13T07:19:52;24.70;;;13.68;;
72085;SDS011;64750;52.134;5.424;2023-02-13T07:22:18;20.97;;;12.30;;
72085;SDS011;64750;52.134;5.424;2023-02-13T07:24:45;22.75;;;13.13;;
72085;SDS011;64750;52.134;5.424;2023-02-13T07:27:11;25.77;;;13.90;;
72085;SDS011;64750;52.134;5.424;2023-02-13T07:29:38;25.55;;;14.40;;
72085;SDS011;64750;52.134;5.424;2023-02-13T07:32:04;28.05;;;14.57;;
72085;SDS011;64750;52.134;5.424;2023-02-13T07:34:32;32.20;;;15.63;;
72085;SDS011;64750;52.134;5.424;2023-02-13T07:36:58;24.55;;;14.25;;
72085;SDS011;64750;52.134;5.424;2023-02-13T07:39:25;27.58;;;15.77;;
72085;SDS011;64750;52.134;5.424;2023-02-13T07:41:51;29.10;;;14.45;;
72085;SDS011;64750;52.134;5.424;2023-02-13T07:44:17;27.98;;;15.02;;
72085;SDS011;64750;52.134;5.424;2023-02-13T07:46:44;26.37;;;13.63;;
72085;SDS011;64750;52.134;5.424;2023-02-13T07:49:10;30.02;;;15.05;;
72085;SDS011;64750;52.134;5.424;2023-02-13T07:51:37;25.50;;;13.88;;
72085;SDS011;64750;52.134;5.424;2023-02-13T07:54:03;25.20;;;14.13;;
72085;SDS011;64750;52.134;5.424;2023-02-13T07:56:29;27.60;;;15.20;;
72085;SDS011;64750;52.134;5.424;2023-02-13T07:58:56;27.93;;;14.60;;
72085;SDS011;64750;52.134;5.424;2023-02-13T08:01:22;24.42;;;13.57;;
72085;SDS011;64750;52.134;5.424;2023-02-13T08:03:49;26.90;;;14.27;;
72085;SDS011;64750;52.134;5.424;2023-02-13T08:06:16;24.75;;;13.65;;
72085;SDS011;64750;52.134;5.424;2023-02-13T08:08:44;28.20;;;14.65;;
72085;SDS011;64750;52.134;5.424;2023-02-13T08:11:16;26.53;;;14.30;;
72085;SDS011;64750;52.134;5.424;2023-02-13T08:14:07;23.50;;;14.52;;
72085;SDS011;64750;52.134;5.424;2023-02-13T08:16:34;26.50;;;13.98;;
72085;SDS011;64750;52.134;5.424;2023-02-13T08:19:01;25.42;;;14.10;;
72085;SDS011;64750;52.134;5.424;2023-02-13T08:21:27;23.23;;;13.70;;
72085;SDS011;64750;52.134;5.424;2023-02-13T08:23:53;26.93;;;14.47;;
72085;SDS011;64750;52.134;5.424;2023-02-13T08:26:20;25.52;;;14.45;;
72085;SDS011;64750;52.134;5.424;2023-02-13T08:28:46;23.98;;;13.75;;
72085;SDS011;64750;52.134;5.424;2023-02-13T08:31:12;26.77;;;14.40;;
72085;SDS011;64750;52.134;5.424;2023-02-13T08:33:39;21.65;;;13.35;;
72085;SDS011;64750;52.134;5.424;2023-02-13T08:36:06;27.20;;;14.27;;
72085;SDS011;64750;52.134;5.424;2023-02-13T08:38:33;27.27;;;14.20;;
72085;SDS011;64750;52.134;5.424;2023-02-13T08:41:00;23.35;;;14.25;;
72085;SDS011;64750;52.134;5.424;2023-02-13T08:43:26;24.83;;;14.15;;
72085;SDS011;64750;52.134;5.424;2023-02-13T08:45:52;24.98;;;14.20;;
72085;SDS011;64750;52.134;5.424;2023-02-13T08:48:19;22.23;;;13.23;;
72085;SDS011;64750;52.134;5.424;2023-02-13T08:50:45;21.38;;;12.95;;
72085;SDS011;64750;52.134;5.424;2023-02-13T08:53:12;22.33;;;13.25;;
72085;SDS011;64750;52.134;5.424;2023-02-13T08:55:38;23.88;;;14.10;;
72085;SDS011;64750;52.134;5.424;2023-02-13T08:58:04;22.80;;;13.73;;
72085;SDS011;64750;52.134;5.424;2023-02-13T09:00:31;21.10;;;13.33;;
72085;SDS011;64750;52.134;5.424;2023-02-13T09:03:01;23.00;;;12.85;;
72085;SDS011;64750;52.134;5.424;2023-02-13T09:05:29;20.70;;;12.73;;
72085;SDS011;64750;52.134;5.424;2023-02-13T09:08:00;19.05;;;12.07;;
72085;SDS011;64750;52.134;5.424;2023-02-13T09:10:30;18.60;;;12.50;;
72085;SDS011;64750;52.134;5.424;2023-02-13T09:12:58;19.03;;;12.50;;
72085;SDS011;64750;52.134;5.424;2023-02-13T09:15:24;22.05;;;12.30;;
72085;SDS011;64750;52.134;5.424;2023-02-13T09:17:50;25.33;;;13.13;;
72085;SDS011;64750;52.134;5.424;2023-02-13T09:20:17;19.88;;;11.90;;
72085;SDS011;64750;52.134;5.424;2023-02-13T09:22:43;20.33;;;13.60;;
72085;SDS011;64750;52.134;5.424;2023-02-13T09:25:10;24.13;;;13.23;;
72085;SDS011;64750;52.134;5.424;2023-02-13T09:27:36;19.45;;;12.27;;
72085;SDS011;64750;52.134;5.424;2023-02-13T09:30:05;18.73;;;11.65;;
72085;SDS011;64750;52.134;5.424;2023-02-13T09:32:33;21.95;;;13.23;;
72085;SDS011;64750;52.134;5.424;2023-02-13T09:35:00;20.55;;;12.10;;
72085;SDS011;64750;52.134;5.424;2023-02-13T09:37:26;21.67;;;12.60;;
72085;SDS011;64750;52.134;5.424;2023-02-13T09:39:53;23.13;;;13.38;;
72085;SDS011;64750;52.134;5.424;2023-02-13T09:42:20;22.80;;;13.23;;
72085;SDS011;64750;52.134;5.424;2023-02-13T09:44:52;18.17;;;12.00;;
72085;SDS011;64750;52.134;5.424;2023-02-13T09:50:00;19.03;;;12.30;;
72085;SDS011;64750;52.134;5.424;2023-02-13T09:52:32;22.48;;;12.80;;
72085;SDS011;64750;52.134;5.424;2023-02-13T09:55:01;23.63;;;13.45;;
72085;SDS011;64750;52.134;5.424;2023-02-13T10:02:57;17.80;;;12.53;;
72085;SDS011;64750;52.134;5.424;2023-02-13T10:05:45;20.10;;;12.75;;
72085;SDS011;64750;52.134;5.424;2023-02-13T10:16:21;19.40;;;11.70;;
72085;SDS011;64750;52.134;5.424;2023-02-13T10:19:04;18.95;;;12.00;;
72085;SDS011;64750;52.134;5.424;2023-02-13T10:21:51;21.63;;;12.85;;
72085;SDS011;64750;52.134;5.424;2023-02-13T10:26:56;19.08;;;12.25;;
72085;SDS011;64750;52.134;5.424;2023-02-13T10:29:28;17.93;;;12.73;;
72085;SDS011;64750;52.134;5.424;2023-02-13T10:32:21;23.23;;;13.50;;
72085;SDS011;64750;52.134;5.424;2023-02-13T10:34:54;24.08;;;12.95;;
72085;SDS011;64750;52.134;5.424;2023-02-13T10:37:26;19.15;;;13.00;;
72085;SDS011;64750;52.134;5.424;2023-02-13T10:39:53;20.48;;;12.15;;
72085;SDS011;64750;52.134;5.424;2023-02-13T10:42:20;22.10;;;13.23;;
72085;SDS011;64750;52.134;5.424;2023-02-13T10:53:20;22.33;;;13.65;;
72085;SDS011;64750;52.134;5.424;2023-02-13T10:58:46;19.20;;;12.77;;
72085;SDS011;64750;52.134;5.424;2023-02-13T11:01:25;17.27;;;12.80;;
72085;SDS011;64750;52.134;5.424;2023-02-13T11:04:10;18.10;;;12.73;;
72085;SDS011;64750;52.134;5.424;2023-02-13T11:06:47;21.67;;;13.25;;
72085;SDS011;64750;52.134;5.424;2023-02-13T11:09:20;20.47;;;12.73;;
72085;SDS011;64750;52.134;5.424;2023-02-13T11:11:47;22.10;;;13.48;;
72085;SDS011;64750;52.134;5.424;2023-02-13T11:14:15;17.65;;;12.98;;
72085;SDS011;64750;52.134;5.424;2023-02-13T11:22:13;19.63;;;13.30;;
72085;SDS011;64750;52.134;5.424;2023-02-13T11:24:52;21.23;;;13.18;;
72085;SDS011;64750;52.134;5.424;2023-02-13T11:27:35;21.67;;;13.68;;
72085;SDS011;64750;52.134;5.424;2023-02-13T11:30:05;18.63;;;13.00;;
72085;SDS011;64750;52.134;5.424;2023-02-13T11:33:03;18.45;;;12.07;;
72085;SDS011;64750;52.134;5.424;2023-02-13T11:35:46;17.80;;;12.83;;
72085;SDS011;64750;52.134;5.424;2023-02-13T11:40:47;16.52;;;11.50;;
72085;SDS011;64750;52.134;5.424;2023-02-13T11:43:23;20.60;;;13.23;;
72085;SDS011;64750;52.134;5.424;2023-02-13T11:48:31;20.73;;;12.03;;
72085;SDS011;64750;52.134;5.424;2023-02-13T11:50:58;20.15;;;11.52;;
72085;SDS011;64750;52.134;5.424;2023-02-13T11:53:26;16.27;;;12.02;;
72085;SDS011;64750;52.134;5.424;2023-02-13T11:56:08;17.00;;;11.60;;
72085;SDS011;64750;52.134;5.424;2023-02-13T11:58:39;17.67;;;11.82;;
72085;SDS011;64750;52.134;5.424;2023-02-13T12:04:05;18.70;;;11.85;;
72085;SDS011;64750;52.134;5.424;2023-02-13T12:06:38;15.75;;;11.60;;
72085;SDS011;64750;52.134;5.424;2023-02-13T12:09:10;15.57;;;11.48;;
72085;SDS011;64750;52.134;5.424;2023-02-13T12:11:47;18.20;;;11.80;;
72085;SDS011;64750;52.134;5.424;2023-02-13T12:14:20;15.50;;;11.30;;
72085;SDS011;64750;52.134;5.424;2023-02-13T12:16:50;18.95;;;11.18;;
72085;SDS011;64750;52.134;5.424;2023-02-13T12:19:38;17.75;;;11.25;;
72085;SDS011;64750;52.134;5.424;2023-02-13T12:22:11;16.08;;;11.10;;
72085;SDS011;64750;52.134;5.424;2023-02-13T12:27:39;17.57;;;11.63;;
72085;SDS011;64750;52.134;5.424;2023-02-13T12:46:17;15.15;;;12.00;;
72085;SDS011;64750;52.134;5.424;2023-02-13T12:54:39;14.97;;;11.53;;
72085;SDS011;64750;52.134;5.424;2023-02-13T13:06:00;18.33;;;10.95;;
72085;SDS011;64750;52.134;5.424;2023-02-13T13:11:40;14.95;;;10.85;;
72085;SDS011;64750;52.134;5.424;2023-02-13T13:14:21;15.43;;;10.57;;
72085;SDS011;64750;52.134;5.424;2023-02-13T13:22:32;12.90;;;9.83;;
72085;SDS011;64750;52.134;5.424;2023-02-13T13:25:17;15.27;;;10.50;;
72085;SDS011;64750;52.134;5.424;2023-02-13T13:27:58;15.65;;;11.10;;
72085;SDS011;64750;52.134;5.424;2023-02-13T13:30:33;17.73;;;11.45;;
72085;SDS011;64750;52.134;5.424;2023-02-13T13:33:03;17.20;;;11.23;;
72085;SDS011;64750;52.134;5.424;2023-02-13T13:35:48;13.43;;;10.27;;
72085;SDS011;64750;52.134;5.424;2023-02-13T13:38:33;14.40;;;10.05;;
72085;SDS011;64750;52.134;5.424;2023-02-13T13:41:17;15.63;;;10.27;;
72085;SDS011;64750;52.134;5.424;2023-02-13T13:46:20;15.48;;;10.60;;
72085;SDS011;64750;52.134;5.424;2023-02-13T13:51:49;16.65;;;11.15;;
72085;SDS011;64750;52.134;5.424;2023-02-13T13:54:17;15.35;;;11.32;;
72085;SDS011;64750;52.134;5.424;2023-02-13T13:59:18;15.45;;;10.82;;
72085;SDS011;64750;52.134;5.424;2023-02-13T14:02:38;19.27;;;11.23;;
72085;SDS011;64750;52.134;5.424;2023-02-13T14:05:21;19.60;;;11.30;;
72085;SDS011;64750;52.134;5.424;2023-02-13T14:07:51;15.80;;;11.35;;
72085;SDS011;64750;52.134;5.424;2023-02-13T14:18:20;14.48;;;10.88;;
72085;SDS011;64750;52.134;5.424;2023-02-13T14:23:36;18.02;;;11.65;;
72085;SDS011;64750;52.134;5.424;2023-02-13T14:26:27;14.90;;;10.35;;
72085;SDS011;64750;52.134;5.424;2023-02-13T14:29:03;14.90;;;10.73;;
72085;SDS011;64750;52.134;5.424;2023-02-13T14:31:42;14.77;;;10.93;;
72085;SDS011;64750;52.134;5.424;2023-02-13T14:34:37;14.43;;;10.48;;
72085;SDS011;64750;52.134;5.424;2023-02-13T14:42:37;15.50;;;10.50;;
72085;SDS011;64750;52.134;5.424;2023-02-13T14:45:10;11.88;;;9.60;;
72085;SDS011;64750;52.134;5.424;2023-02-13T14:47:46;12.98;;;9.90;;
72085;SDS011;64750;52.134;5.424;2023-02-13T14:50:20;14.93;;;9.35;;
72085;SDS011;64750;52.134;5.424;2023-02-13T14:53:19;15.32;;;10.32;;
72085;SDS011;64750;52.134;5.424;2023-02-13T14:55:47;13.13;;;10.40;;
72085;SDS011;64750;52.134;5.424;2023-02-13T14:58:22;13.95;;;10.82;;
72085;SDS011;64750;52.134;5.424;2023-02-13T15:03:27;15.50;;;10.60;;
72085;SDS011;64750;52.134;5.424;2023-02-13T15:06:02;16.10;;;11.68;;
72085;SDS011;64750;52.134;5.424;2023-02-13T15:08:35;16.07;;;10.50;;
72085;SDS011;64750;52.134;5.424;2023-02-13T15:11:07;19.67;;;10.23;;
72085;SDS011;64750;52.134;5.424;2023-02-13T15:13:54;14.80;;;9.85;;
72085;SDS011;64750;52.134;5.424;2023-02-13T15:16:20;11.45;;;9.73;;
72085;SDS011;64750;52.134;5.424;2023-02-13T15:18:47;18.92;;;11.55;;
72085;SDS011;64750;52.134;5.424;2023-02-13T15:21:18;17.13;;;10.60;;
72085;SDS011;64750;52.134;5.424;2023-02-13T15:23:48;13.68;;;9.57;;
72085;SDS011;64750;52.134;5.424;2023-02-13T15:26:18;13.27;;;9.90;;
72085;SDS011;64750;52.134;5.424;2023-02-13T15:29:04;13.48;;;10.27;;
72085;SDS011;64750;52.134;5.424;2023-02-13T15:31:53;11.57;;;9.10;;
72085;SDS011;64750;52.134;5.424;2023-02-13T15:34:20;14.87;;;10.13;;
72085;SDS011;64750;52.134;5.424;2023-02-13T15:36:52;13.45;;;9.77;;
72085;SDS011;64750;52.134;5.424;2023-02-13T15:39:21;12.27;;;9.52;;
72085;SDS011;64750;52.134;5.424;2023-02-13T15:41:51;13.32;;;9.88;;
72085;SDS011;64750;52.134;5.424;2023-02-13T15:44:25;14.25;;;9.60;;
72085;SDS011;64750;52.134;5.424;2023-02-13T15:47:04;18.07;;;10.83;;
72085;SDS011;64750;52.134;5.424;2023-02-13T15:49:41;17.48;;;10.88;;
72085;SDS011;64750;52.134;5.424;2023-02-13T15:52:17;16.05;;;10.85;;
72085;SDS011;64750;52.134;5.424;2023-02-13T15:54:51;12.75;;;10.50;;
72085;SDS011;64750;52.134;5.424;2023-02-13T15:57:19;15.40;;;10.27;;
72085;SDS011;64750;52.134;5.424;2023-02-13T15:59:48;13.00;;;9.57;;
72085;SDS011;64750;52.134;5.424;2023-02-13T16:02:19;13.63;;;9.90;;
72085;SDS011;64750;52.134;5.424;2023-02-13T16:04:50;13.18;;;10.98;;
72085;SDS011;64750;52.134;5.424;2023-02-13T16:07:19;15.02;;;10.90;;
72085;SDS011;64750;52.134;5.424;2023-02-13T16:09:45;14.18;;;10.32;;
72085;SDS011;64750;52.134;5.424;2023-02-13T16:12:22;12.90;;;10.37;;
72085;SDS011;64750;52.134;5.424;2023-02-13T16:14:55;16.42;;;9.77;;
72085;SDS011;64750;52.134;5.424;2023-02-13T16:17:26;13.45;;;10.15;;
72085;SDS011;64750;52.134;5.424;2023-02-13T16:19:58;14.65;;;10.55;;
72085;SDS011;64750;52.134;5.424;2023-02-13T16:22:32;13.52;;;11.20;;
72085;SDS011;64750;52.134;5.424;2023-02-13T16:25:06;15.17;;;10.13;;
72085;SDS011;64750;52.134;5.424;2023-02-13T16:33:07;15.25;;;10.40;;
72085;SDS011;64750;52.134;5.424;2023-02-13T16:35:40;15.50;;;11.10;;
72085;SDS011;64750;52.134;5.424;2023-02-13T16:38:29;13.83;;;10.03;;
72085;SDS011;64750;52.134;5.424;2023-02-13T16:41:27;16.48;;;11.68;;
72085;SDS011;64750;52.134;5.424;2023-02-13T16:44:00;16.95;;;11.70;;
72085;SDS011;64750;52.134;5.424;2023-02-13T16:56:36;14.15;;;10.15;;
72085;SDS011;64750;52.134;5.424;2023-02-13T17:02:16;13.65;;;10.57;;
72085;SDS011;64750;52.134;5.424;2023-02-13T17:07:29;16.00;;;11.32;;
72085;SDS011;64750;52.134;5.424;2023-02-13T17:09:59;16.25;;;10.88;;
72085;SDS011;64750;52.134;5.424;2023-02-13T17:12:42;16.65;;;10.85;;
72085;SDS011;64750;52.134;5.424;2023-02-13T17:15:10;17.13;;;11.35;;
72085;SDS011;64750;52.134;5.424;2023-02-13T17:17:38;13.57;;;10.57;;
72085;SDS011;64750;52.134;5.424;2023-02-13T17:20:05;16.42;;;10.77;;
72085;SDS011;64750;52.134;5.424;2023-02-13T17:22:34;13.82;;;10.45;;
72085;SDS011;64750;52.134;5.424;2023-02-13T17:25:04;21.15;;;12.05;;
72085;SDS011;64750;52.134;5.424;2023-02-13T17:27:34;18.48;;;11.85;;
72085;SDS011;64750;52.134;5.424;2023-02-13T17:30:00;14.80;;;11.07;;
72085;SDS011;64750;52.134;5.424;2023-02-13T17:32:27;14.43;;;10.93;;
72085;SDS011;64750;52.134;5.424;2023-02-13T17:34:54;16.10;;;10.80;;
72085;SDS011;64750;52.134;5.424;2023-02-13T17:37:22;16.33;;;11.13;;
72085;SDS011;64750;52.134;5.424;2023-02-13T17:39:53;19.40;;;11.77;;
72085;SDS011;64750;52.134;5.424;2023-02-13T17:42:26;18.13;;;10.57;;
72085;SDS011;64750;52.134;5.424;2023-02-13T17:44:55;20.60;;;12.23;;